sensor_id;sensor_type;location;lat;lon;timestamp;P1;durP1;ratioP1;P2;durP2;ratioP2
78053;SDS011;67726;45.636;11.752;2023-11-19T00:00:15;56.60;;;29.85;;
78053;SDS011;67726;45.636;11.752;2023-11-19T00:02:42;68.33;;;28.63;;
78053;SDS011;67726;45.636;11.752;2023-11-19T00:05:08;56.85;;;31.10;;
78053;SDS011;67726;45.636;11.752;2023-11-19T00:07:37;57.00;;;29.77;;
78053;SDS011;67726;45.636;11.752;2023-11-19T00:10:07;51.65;;;28.70;;
78053;SDS011;67726;45.636;11.752;2023-11-19T00:12:37;55.80;;;30.15;;
78053;SDS011;67726;45.636;11.752;2023-11-19T00:15:05;53.33;;;27.57;;
78053;SDS011;67726;45.636;11.752;2023-11-19T00:17:32;52.25;;;28.80;;
78053;SDS011;67726;45.636;11.752;2023-11-19T00:19:57;53.08;;;29.13;;
78053;SDS011;67726;45.636;11.752;2023-11-19T00:22:23;60.40;;;31.37;;
78053;SDS011;67726;45.636;11.752;2023-11-19T00:24:51;57.53;;;30.13;;
78053;SDS011;67726;45.636;11.752;2023-11-19T00:27:16;59.23;;;32.87;;
78053;SDS011;67726;45.636;11.752;2023-11-19T00:29:43;55.65;;;31.38;;
78053;SDS011;67726;45.636;11.752;2023-11-19T00:32:10;53.45;;;28.92;;
78053;SDS011;67726;45.636;11.752;2023-11-19T00:34:36;48.70;;;28.25;;
78053;SDS011;67726;45.636;11.752;2023-11-19T00:37:02;45.93;;;25.57;;
78053;SDS011;67726;45.636;11.752;2023-11-19T00:39:28;48.70;;;26.75;;
78053;SDS011;67726;45.636;11.752;2023-11-19T00:41:54;49.30;;;26.13;;
78053;SDS011;67726;45.636;11.752;2023-11-19T00:44:20;48.53;;;27.45;;
78053;SDS011;67726;45.636;11.752;2023-11-19T00:46:46;51.30;;;26.92;;
78053;SDS011;67726;45.636;11.752;2023-11-19T00:49:12;46.70;;;25.83;;
78053;SDS011;67726;45.636;11.752;2023-11-19T00:51:38;46.67;;;25.37;;
78053;SDS011;67726;45.636;11.752;2023-11-19T00:54:03;48.33;;;26.20;;
78053;SDS011;67726;45.636;11.752;2023-11-19T00:56:29;47.58;;;25.67;;
78053;SDS011;67726;45.636;11.752;2023-11-19T00:58:55;51.13;;;25.47;;
78053;SDS011;67726;45.636;11.752;2023-11-19T01:01:21;47.00;;;24.40;;
78053;SDS011;67726;45.636;11.752;2023-11-19T01:03:47;43.73;;;23.50;;
78053;SDS011;67726;45.636;11.752;2023-11-19T01:06:12;40.13;;;23.35;;
78053;SDS011;67726;45.636;11.752;2023-11-19T01:08:39;43.05;;;24.20;;
78053;SDS011;67726;45.636;11.752;2023-11-19T01:11:04;43.67;;;23.37;;
78053;SDS011;67726;45.636;11.752;2023-11-19T01:13:30;43.57;;;23.13;;
78053;SDS011;67726;45.636;11.752;2023-11-19T01:15:56;41.25;;;24.38;;
78053;SDS011;67726;45.636;11.752;2023-11-19T01:18:21;39.67;;;22.73;;
78053;SDS011;67726;45.636;11.752;2023-11-19T01:20:47;41.65;;;23.73;;
78053;SDS011;67726;45.636;11.752;2023-11-19T01:23:13;50.97;;;24.13;;
78053;SDS011;67726;45.636;11.752;2023-11-19T01:25:38;44.80;;;23.85;;
78053;SDS011;67726;45.636;11.752;2023-11-19T01:28:04;42.80;;;24.63;;
78053;SDS011;67726;45.636;11.752;2023-11-19T01:30:30;45.75;;;25.15;;
78053;SDS011;67726;45.636;11.752;2023-11-19T01:32:55;43.90;;;22.83;;
78053;SDS011;67726;45.636;11.752;2023-11-19T01:35:21;44.28;;;23.48;;
78053;SDS011;67726;45.636;11.752;2023-11-19T01:37:48;43.13;;;24.47;;
78053;SDS011;67726;45.636;11.752;2023-11-19T01:40:13;41.50;;;22.02;;
78053;SDS011;67726;45.636;11.752;2023-11-19T01:42:40;48.22;;;23.10;;
78053;SDS011;67726;45.636;11.752;2023-11-19T01:45:06;39.47;;;20.73;;
78053;SDS011;67726;45.636;11.752;2023-11-19T01:47:34;42.50;;;23.15;;
78053;SDS011;67726;45.636;11.752;2023-11-19T01:50:01;42.05;;;24.23;;
78053;SDS011;67726;45.636;11.752;2023-11-19T01:52:31;43.67;;;22.80;;
78053;SDS011;67726;45.636;11.752;2023-11-19T01:55:00;37.03;;;22.73;;
78053;SDS011;67726;45.636;11.752;2023-11-19T01:57:27;40.40;;;22.67;;
78053;SDS011;67726;45.636;11.752;2023-11-19T01:59:53;44.38;;;23.67;;
78053;SDS011;67726;45.636;11.752;2023-11-19T02:02:19;40.67;;;23.00;;
78053;SDS011;67726;45.636;11.752;2023-11-19T02:04:46;44.50;;;24.73;;
78053;SDS011;67726;45.636;11.752;2023-11-19T02:07:13;45.28;;;22.90;;
78053;SDS011;67726;45.636;11.752;2023-11-19T02:09:42;44.33;;;23.85;;
78053;SDS011;67726;45.636;11.752;2023-11-19T02:12:09;41.75;;;22.92;;
78053;SDS011;67726;45.636;11.752;2023-11-19T02:14:37;43.83;;;23.52;;
78053;SDS011;67726;45.636;11.752;2023-11-19T02:17:03;43.67;;;22.80;;
78053;SDS011;67726;45.636;11.752;2023-11-19T02:19:29;41.58;;;22.13;;
78053;SDS011;67726;45.636;11.752;2023-11-19T02:21:55;42.35;;;21.88;;
78053;SDS011;67726;45.636;11.752;2023-11-19T02:24:21;42.87;;;22.20;;
78053;SDS011;67726;45.636;11.752;2023-11-19T02:29:22;41.70;;;23.80;;
78053;SDS011;67726;45.636;11.752;2023-11-19T02:31:48;41.77;;;22.70;;
78053;SDS011;67726;45.636;11.752;2023-11-19T02:34:13;42.85;;;21.85;;
78053;SDS011;67726;45.636;11.752;2023-11-19T02:36:39;38.67;;;21.03;;
78053;SDS011;67726;45.636;11.752;2023-11-19T02:39:06;37.05;;;22.38;;
78053;SDS011;67726;45.636;11.752;2023-11-19T02:41:35;43.45;;;22.17;;
78053;SDS011;67726;45.636;11.752;2023-11-19T02:44:01;41.60;;;20.80;;
78053;SDS011;67726;45.636;11.752;2023-11-19T02:46:28;37.15;;;20.92;;
78053;SDS011;67726;45.636;11.752;2023-11-19T02:48:53;40.17;;;22.23;;
78053;SDS011;67726;45.636;11.752;2023-11-19T02:51:19;41.47;;;21.50;;
78053;SDS011;67726;45.636;11.752;2023-11-19T02:53:45;39.67;;;21.60;;
78053;SDS011;67726;45.636;11.752;2023-11-19T02:56:13;38.58;;;21.23;;
78053;SDS011;67726;45.636;11.752;2023-11-19T02:58:50;36.25;;;19.95;;
78053;SDS011;67726;45.636;11.752;2023-11-19T03:01:23;34.83;;;20.33;;
78053;SDS011;67726;45.636;11.752;2023-11-19T03:03:54;35.97;;;19.67;;
78053;SDS011;67726;45.636;11.752;2023-11-19T03:06:24;34.55;;;19.38;;
78053;SDS011;67726;45.636;11.752;2023-11-19T03:08:50;38.70;;;19.77;;
78053;SDS011;67726;45.636;11.752;2023-11-19T03:11:15;40.33;;;20.50;;
78053;SDS011;67726;45.636;11.752;2023-11-19T03:13:41;38.60;;;21.90;;
78053;SDS011;67726;45.636;11.752;2023-11-19T03:16:07;40.50;;;21.80;;
78053;SDS011;67726;45.636;11.752;2023-11-19T03:18:33;36.37;;;20.00;;
78053;SDS011;67726;45.636;11.752;2023-11-19T03:20:58;40.83;;;21.08;;
78053;SDS011;67726;45.636;11.752;2023-11-19T03:23:24;40.28;;;20.67;;
78053;SDS011;67726;45.636;11.752;2023-11-19T03:25:52;38.13;;;20.83;;
78053;SDS011;67726;45.636;11.752;2023-11-19T03:28:18;36.50;;;20.70;;
78053;SDS011;67726;45.636;11.752;2023-11-19T03:30:44;39.97;;;21.27;;
78053;SDS011;67726;45.636;11.752;2023-11-19T03:33:10;40.77;;;22.20;;
78053;SDS011;67726;45.636;11.752;2023-11-19T03:35:35;41.85;;;21.48;;
78053;SDS011;67726;45.636;11.752;2023-11-19T03:38:01;36.57;;;21.03;;
78053;SDS011;67726;45.636;11.752;2023-11-19T03:40:27;40.13;;;21.40;;
78053;SDS011;67726;45.636;11.752;2023-11-19T03:42:55;34.27;;;20.33;;
78053;SDS011;67726;45.636;11.752;2023-11-19T03:45:22;41.55;;;21.10;;
78053;SDS011;67726;45.636;11.752;2023-11-19T03:47:51;37.50;;;18.95;;
78053;SDS011;67726;45.636;11.752;2023-11-19T03:50:16;37.60;;;19.97;;
78053;SDS011;67726;45.636;11.752;2023-11-19T03:52:45;39.53;;;19.95;;
78053;SDS011;67726;45.636;11.752;2023-11-19T03:55:11;36.25;;;19.35;;
78053;SDS011;67726;45.636;11.752;2023-11-19T03:57:37;34.58;;;18.90;;
78053;SDS011;67726;45.636;11.752;2023-11-19T04:00:04;36.22;;;20.17;;
78053;SDS011;67726;45.636;11.752;2023-11-19T04:02:38;40.63;;;20.33;;
78053;SDS011;67726;45.636;11.752;2023-11-19T04:05:04;35.35;;;19.10;;
78053;SDS011;67726;45.636;11.752;2023-11-19T04:07:31;32.97;;;18.45;;
78053;SDS011;67726;45.636;11.752;2023-11-19T04:09:57;29.93;;;19.03;;
78053;SDS011;67726;45.636;11.752;2023-11-19T04:12:23;35.08;;;20.10;;
78053;SDS011;67726;45.636;11.752;2023-11-19T04:14:49;34.42;;;18.58;;
78053;SDS011;67726;45.636;11.752;2023-11-19T04:17:14;34.63;;;19.43;;
78053;SDS011;67726;45.636;11.752;2023-11-19T04:19:40;33.20;;;18.10;;
78053;SDS011;67726;45.636;11.752;2023-11-19T04:22:09;35.00;;;18.53;;
78053;SDS011;67726;45.636;11.752;2023-11-19T04:24:35;36.88;;;19.38;;
78053;SDS011;67726;45.636;11.752;2023-11-19T04:27:01;35.05;;;19.70;;
78053;SDS011;67726;45.636;11.752;2023-11-19T04:29:27;38.63;;;20.77;;
78053;SDS011;67726;45.636;11.752;2023-11-19T04:31:52;37.67;;;21.70;;
78053;SDS011;67726;45.636;11.752;2023-11-19T04:34:18;35.67;;;21.03;;
78053;SDS011;67726;45.636;11.752;2023-11-19T04:36:44;42.33;;;23.07;;
78053;SDS011;67726;45.636;11.752;2023-11-19T04:39:09;41.42;;;21.77;;
78053;SDS011;67726;45.636;11.752;2023-11-19T04:41:47;38.97;;;21.55;;
78053;SDS011;67726;45.636;11.752;2023-11-19T04:44:14;38.80;;;21.13;;
78053;SDS011;67726;45.636;11.752;2023-11-19T04:46:41;36.13;;;21.13;;
78053;SDS011;67726;45.636;11.752;2023-11-19T04:49:09;36.33;;;20.55;;
78053;SDS011;67726;45.636;11.752;2023-11-19T04:51:39;38.88;;;21.13;;
78053;SDS011;67726;45.636;11.752;2023-11-19T04:54:05;39.95;;;22.00;;
78053;SDS011;67726;45.636;11.752;2023-11-19T04:56:33;37.73;;;21.27;;
78053;SDS011;67726;45.636;11.752;2023-11-19T04:59:00;41.10;;;21.10;;
78053;SDS011;67726;45.636;11.752;2023-11-19T05:01:26;34.63;;;21.55;;
78053;SDS011;67726;45.636;11.752;2023-11-19T05:03:52;41.90;;;22.33;;
78053;SDS011;67726;45.636;11.752;2023-11-19T05:06:18;36.87;;;21.97;;
78053;SDS011;67726;45.636;11.752;2023-11-19T05:08:44;38.55;;;22.70;;
78053;SDS011;67726;45.636;11.752;2023-11-19T05:11:10;36.33;;;20.30;;
78053;SDS011;67726;45.636;11.752;2023-11-19T05:13:37;39.72;;;21.17;;
78053;SDS011;67726;45.636;11.752;2023-11-19T05:16:03;38.20;;;21.13;;
78053;SDS011;67726;45.636;11.752;2023-11-19T05:18:29;33.85;;;20.85;;
78053;SDS011;67726;45.636;11.752;2023-11-19T05:20:55;35.40;;;19.97;;
78053;SDS011;67726;45.636;11.752;2023-11-19T05:23:20;37.60;;;21.27;;
78053;SDS011;67726;45.636;11.752;2023-11-19T05:25:46;40.47;;;19.97;;
78053;SDS011;67726;45.636;11.752;2023-11-19T05:28:12;30.60;;;20.10;;
78053;SDS011;67726;45.636;11.752;2023-11-19T05:30:39;48.05;;;22.00;;
78053;SDS011;67726;45.636;11.752;2023-11-19T05:33:05;46.22;;;23.58;;
78053;SDS011;67726;45.636;11.752;2023-11-19T05:35:33;52.97;;;24.87;;
78053;SDS011;67726;45.636;11.752;2023-11-19T05:37:59;65.90;;;28.65;;
78053;SDS011;67726;45.636;11.752;2023-11-19T05:40:25;67.15;;;29.35;;
78053;SDS011;67726;45.636;11.752;2023-11-19T05:42:51;67.77;;;28.50;;
78053;SDS011;67726;45.636;11.752;2023-11-19T05:45:17;60.10;;;28.40;;
78053;SDS011;67726;45.636;11.752;2023-11-19T05:47:42;52.50;;;24.75;;
78053;SDS011;67726;45.636;11.752;2023-11-19T05:50:08;54.57;;;26.40;;
78053;SDS011;67726;45.636;11.752;2023-11-19T05:52:35;52.35;;;25.55;;
78053;SDS011;67726;45.636;11.752;2023-11-19T05:55:01;54.10;;;25.10;;
78053;SDS011;67726;45.636;11.752;2023-11-19T05:57:30;41.83;;;21.85;;
78053;SDS011;67726;45.636;11.752;2023-11-19T05:59:56;39.40;;;20.23;;
78053;SDS011;67726;45.636;11.752;2023-11-19T06:02:23;44.30;;;22.10;;
78053;SDS011;67726;45.636;11.752;2023-11-19T06:04:49;38.63;;;20.47;;
78053;SDS011;67726;45.636;11.752;2023-11-19T06:07:15;35.92;;;19.17;;
78053;SDS011;67726;45.636;11.752;2023-11-19T06:09:40;35.27;;;19.47;;
78053;SDS011;67726;45.636;11.752;2023-11-19T06:12:06;35.92;;;18.80;;
78053;SDS011;67726;45.636;11.752;2023-11-19T06:14:32;37.03;;;19.37;;
78053;SDS011;67726;45.636;11.752;2023-11-19T06:16:58;36.63;;;19.27;;
78053;SDS011;67726;45.636;11.752;2023-11-19T06:19:24;37.60;;;20.02;;
78053;SDS011;67726;45.636;11.752;2023-11-19T06:21:50;39.33;;;20.43;;
78053;SDS011;67726;45.636;11.752;2023-11-19T06:24:16;34.20;;;18.88;;
78053;SDS011;67726;45.636;11.752;2023-11-19T06:26:42;36.27;;;19.53;;
78053;SDS011;67726;45.636;11.752;2023-11-19T06:29:08;36.88;;;19.80;;
78053;SDS011;67726;45.636;11.752;2023-11-19T06:31:34;36.28;;;19.65;;
78053;SDS011;67726;45.636;11.752;2023-11-19T06:33:59;38.63;;;20.83;;
78053;SDS011;67726;45.636;11.752;2023-11-19T06:36:25;61.78;;;31.00;;
78053;SDS011;67726;45.636;11.752;2023-11-19T06:38:51;106.72;;;51.65;;
78053;SDS011;67726;45.636;11.752;2023-11-19T06:41:17;85.03;;;42.27;;
78053;SDS011;67726;45.636;11.752;2023-11-19T06:43:43;57.88;;;32.53;;
78053;SDS011;67726;45.636;11.752;2023-11-19T06:46:15;48.77;;;24.63;;
78053;SDS011;67726;45.636;11.752;2023-11-19T06:48:41;58.37;;;23.43;;
78053;SDS011;67726;45.636;11.752;2023-11-19T06:51:09;41.80;;;20.98;;
78053;SDS011;67726;45.636;11.752;2023-11-19T06:53:35;33.70;;;18.83;;
78053;SDS011;67726;45.636;11.752;2023-11-19T06:56:01;35.53;;;18.25;;
78053;SDS011;67726;45.636;11.752;2023-11-19T06:58:31;35.57;;;18.80;;
78053;SDS011;67726;45.636;11.752;2023-11-19T07:01:06;33.70;;;18.65;;
78053;SDS011;67726;45.636;11.752;2023-11-19T07:03:33;31.70;;;18.02;;
78053;SDS011;67726;45.636;11.752;2023-11-19T07:06:00;33.08;;;18.00;;
78053;SDS011;67726;45.636;11.752;2023-11-19T07:08:26;31.23;;;18.07;;
78053;SDS011;67726;45.636;11.752;2023-11-19T07:10:52;29.90;;;18.05;;
78053;SDS011;67726;45.636;11.752;2023-11-19T07:13:18;33.17;;;16.25;;
78053;SDS011;67726;45.636;11.752;2023-11-19T07:15:44;30.35;;;16.27;;
78053;SDS011;67726;45.636;11.752;2023-11-19T07:18:10;26.10;;;15.37;;
78053;SDS011;67726;45.636;11.752;2023-11-19T07:20:36;29.45;;;15.10;;
78053;SDS011;67726;45.636;11.752;2023-11-19T07:23:03;28.35;;;15.77;;
78053;SDS011;67726;45.636;11.752;2023-11-19T07:25:29;28.50;;;16.05;;
78053;SDS011;67726;45.636;11.752;2023-11-19T07:27:54;26.80;;;14.93;;
78053;SDS011;67726;45.636;11.752;2023-11-19T07:30:21;27.10;;;16.08;;
78053;SDS011;67726;45.636;11.752;2023-11-19T07:32:47;42.70;;;26.33;;
78053;SDS011;67726;45.636;11.752;2023-11-19T07:35:13;35.92;;;20.38;;
78053;SDS011;67726;45.636;11.752;2023-11-19T07:37:40;30.57;;;18.80;;
78053;SDS011;67726;45.636;11.752;2023-11-19T07:40:07;30.13;;;18.67;;
78053;SDS011;67726;45.636;11.752;2023-11-19T07:42:33;31.27;;;20.38;;
78053;SDS011;67726;45.636;11.752;2023-11-19T07:44:59;31.48;;;20.35;;
78053;SDS011;67726;45.636;11.752;2023-11-19T07:47:24;29.30;;;17.60;;
78053;SDS011;67726;45.636;11.752;2023-11-19T07:49:50;29.87;;;16.37;;
78053;SDS011;67726;45.636;11.752;2023-11-19T07:52:16;27.40;;;14.75;;
78053;SDS011;67726;45.636;11.752;2023-11-19T07:54:41;27.93;;;15.33;;
78053;SDS011;67726;45.636;11.752;2023-11-19T07:57:07;25.50;;;15.23;;
78053;SDS011;67726;45.636;11.752;2023-11-19T07:59:33;27.90;;;16.20;;
78053;SDS011;67726;45.636;11.752;2023-11-19T08:01:59;25.03;;;14.20;;
78053;SDS011;67726;45.636;11.752;2023-11-19T08:04:24;23.92;;;14.43;;
78053;SDS011;67726;45.636;11.752;2023-11-19T08:06:50;24.70;;;14.10;;
78053;SDS011;67726;45.636;11.752;2023-11-19T08:09:16;24.33;;;14.02;;
78053;SDS011;67726;45.636;11.752;2023-11-19T08:11:42;20.98;;;12.52;;
78053;SDS011;67726;45.636;11.752;2023-11-19T08:14:08;21.63;;;12.80;;
78053;SDS011;67726;45.636;11.752;2023-11-19T08:16:34;19.45;;;11.65;;
78053;SDS011;67726;45.636;11.752;2023-11-19T08:19:01;20.63;;;12.07;;
78053;SDS011;67726;45.636;11.752;2023-11-19T08:21:28;25.08;;;14.52;;
78053;SDS011;67726;45.636;11.752;2023-11-19T08:23:54;22.83;;;14.27;;
78053;SDS011;67726;45.636;11.752;2023-11-19T08:26:19;22.02;;;13.38;;
78053;SDS011;67726;45.636;11.752;2023-11-19T08:28:45;23.57;;;13.83;;
78053;SDS011;67726;45.636;11.752;2023-11-19T08:31:11;24.20;;;14.60;;
78053;SDS011;67726;45.636;11.752;2023-11-19T08:33:36;24.13;;;13.53;;
78053;SDS011;67726;45.636;11.752;2023-11-19T08:36:03;22.35;;;14.80;;
78053;SDS011;67726;45.636;11.752;2023-11-19T08:38:29;24.13;;;13.73;;
78053;SDS011;67726;45.636;11.752;2023-11-19T08:40:55;20.17;;;12.80;;
78053;SDS011;67726;45.636;11.752;2023-11-19T08:43:25;18.65;;;12.48;;
78053;SDS011;67726;45.636;11.752;2023-11-19T08:45:51;19.70;;;12.48;;
78053;SDS011;67726;45.636;11.752;2023-11-19T08:48:17;17.87;;;11.03;;
78053;SDS011;67726;45.636;11.752;2023-11-19T08:50:43;20.00;;;12.15;;
78053;SDS011;67726;45.636;11.752;2023-11-19T08:53:08;18.80;;;10.90;;
78053;SDS011;67726;45.636;11.752;2023-11-19T08:55:34;18.95;;;11.50;;
78053;SDS011;67726;45.636;11.752;2023-11-19T08:58:00;17.77;;;10.57;;
78053;SDS011;67726;45.636;11.752;2023-11-19T09:00:26;18.02;;;10.07;;
78053;SDS011;67726;45.636;11.752;2023-11-19T09:02:51;19.92;;;10.27;;
78053;SDS011;67726;45.636;11.752;2023-11-19T09:05:17;15.97;;;10.33;;
78053;SDS011;67726;45.636;11.752;2023-11-19T09:07:43;15.93;;;9.80;;
78053;SDS011;67726;45.636;11.752;2023-11-19T09:10:08;15.68;;;9.35;;
78053;SDS011;67726;45.636;11.752;2023-11-19T09:12:36;16.88;;;9.25;;
78053;SDS011;67726;45.636;11.752;2023-11-19T09:15:02;14.03;;;8.03;;
78053;SDS011;67726;45.636;11.752;2023-11-19T09:17:28;14.15;;;8.70;;
78053;SDS011;67726;45.636;11.752;2023-11-19T09:19:54;13.30;;;8.13;;
78053;SDS011;67726;45.636;11.752;2023-11-19T09:22:20;14.60;;;7.63;;
78053;SDS011;67726;45.636;11.752;2023-11-19T09:24:47;14.10;;;6.83;;
78053;SDS011;67726;45.636;11.752;2023-11-19T09:27:13;12.10;;;7.55;;
78053;SDS011;67726;45.636;11.752;2023-11-19T09:29:38;12.82;;;6.97;;
78053;SDS011;67726;45.636;11.752;2023-11-19T09:32:04;12.03;;;6.83;;
78053;SDS011;67726;45.636;11.752;2023-11-19T09:34:31;13.73;;;7.57;;
78053;SDS011;67726;45.636;11.752;2023-11-19T09:36:57;11.95;;;7.10;;
78053;SDS011;67726;45.636;11.752;2023-11-19T09:39:22;14.27;;;8.90;;
78053;SDS011;67726;45.636;11.752;2023-11-19T09:41:50;14.33;;;8.80;;
78053;SDS011;67726;45.636;11.752;2023-11-19T09:44:17;15.13;;;8.65;;
78053;SDS011;67726;45.636;11.752;2023-11-19T09:46:44;13.32;;;8.43;;
78053;SDS011;67726;45.636;11.752;2023-11-19T09:49:10;16.15;;;9.05;;
78053;SDS011;67726;45.636;11.752;2023-11-19T09:51:36;15.13;;;8.95;;
78053;SDS011;67726;45.636;11.752;2023-11-19T09:54:02;15.87;;;9.30;;
78053;SDS011;67726;45.636;11.752;2023-11-19T09:56:28;19.80;;;11.43;;
78053;SDS011;67726;45.636;11.752;2023-11-19T09:58:55;19.23;;;11.15;;
78053;SDS011;67726;45.636;11.752;2023-11-19T10:01:20;18.80;;;11.52;;
78053;SDS011;67726;45.636;11.752;2023-11-19T10:03:47;20.87;;;12.03;;
78053;SDS011;67726;45.636;11.752;2023-11-19T10:06:14;18.33;;;10.45;;
78053;SDS011;67726;45.636;11.752;2023-11-19T10:08:41;17.27;;;10.40;;
78053;SDS011;67726;45.636;11.752;2023-11-19T10:11:08;18.67;;;10.07;;
78053;SDS011;67726;45.636;11.752;2023-11-19T10:13:37;17.48;;;10.95;;
78053;SDS011;67726;45.636;11.752;2023-11-19T10:16:11;18.40;;;11.43;;
78053;SDS011;67726;45.636;11.752;2023-11-19T10:18:38;22.15;;;11.85;;
78053;SDS011;67726;45.636;11.752;2023-11-19T10:21:17;22.08;;;11.98;;
78053;SDS011;67726;45.636;11.752;2023-11-19T10:23:56;19.73;;;11.10;;
78053;SDS011;67726;45.636;11.752;2023-11-19T10:26:23;20.80;;;10.93;;
78053;SDS011;67726;45.636;11.752;2023-11-19T10:28:49;16.83;;;10.35;;
78053;SDS011;67726;45.636;11.752;2023-11-19T10:31:19;19.80;;;11.70;;
78053;SDS011;67726;45.636;11.752;2023-11-19T10:33:50;21.67;;;11.67;;
78053;SDS011;67726;45.636;11.752;2023-11-19T10:36:16;20.08;;;10.25;;
78053;SDS011;67726;45.636;11.752;2023-11-19T10:39:03;19.45;;;9.95;;
78053;SDS011;67726;45.636;11.752;2023-11-19T10:41:31;21.63;;;10.45;;
78053;SDS011;67726;45.636;11.752;2023-11-19T10:43:58;18.92;;;10.90;;
78053;SDS011;67726;45.636;11.752;2023-11-19T10:46:35;17.93;;;10.60;;
78053;SDS011;67726;45.636;11.752;2023-11-19T10:49:03;18.17;;;10.30;;
78053;SDS011;67726;45.636;11.752;2023-11-19T10:51:28;16.85;;;9.57;;
78053;SDS011;67726;45.636;11.752;2023-11-19T10:53:54;17.67;;;9.97;;
78053;SDS011;67726;45.636;11.752;2023-11-19T10:56:33;16.15;;;9.15;;
78053;SDS011;67726;45.636;11.752;2023-11-19T10:58:59;18.30;;;9.38;;
78053;SDS011;67726;45.636;11.752;2023-11-19T11:01:27;15.15;;;9.07;;
78053;SDS011;67726;45.636;11.752;2023-11-19T11:03:59;15.73;;;8.75;;
78053;SDS011;67726;45.636;11.752;2023-11-19T11:06:26;14.97;;;8.27;;
78053;SDS011;67726;45.636;11.752;2023-11-19T11:08:52;16.13;;;8.20;;
78053;SDS011;67726;45.636;11.752;2023-11-19T11:11:19;16.67;;;9.10;;
78053;SDS011;67726;45.636;11.752;2023-11-19T11:13:49;15.25;;;8.63;;
78053;SDS011;67726;45.636;11.752;2023-11-19T11:16:18;17.30;;;9.02;;
78053;SDS011;67726;45.636;11.752;2023-11-19T11:18:45;16.97;;;9.60;;
78053;SDS011;67726;45.636;11.752;2023-11-19T11:21:15;16.20;;;9.40;;
78053;SDS011;67726;45.636;11.752;2023-11-19T11:23:53;18.80;;;9.10;;
78053;SDS011;67726;45.636;11.752;2023-11-19T11:29:41;17.00;;;9.25;;
78053;SDS011;67726;45.636;11.752;2023-11-19T11:32:43;18.00;;;9.10;;
78053;SDS011;67726;45.636;11.752;2023-11-19T11:38:07;16.48;;;9.05;;
78053;SDS011;67726;45.636;11.752;2023-11-19T11:40:33;18.35;;;9.88;;
78053;SDS011;67726;45.636;11.752;2023-11-19T11:42:59;18.35;;;9.52;;
78053;SDS011;67726;45.636;11.752;2023-11-19T11:45:40;18.63;;;10.00;;
78053;SDS011;67726;45.636;11.752;2023-11-19T11:50:58;16.25;;;9.23;;
78053;SDS011;67726;45.636;11.752;2023-11-19T11:53:24;17.73;;;9.93;;
78053;SDS011;67726;45.636;11.752;2023-11-19T11:58:26;16.23;;;9.32;;
78053;SDS011;67726;45.636;11.752;2023-11-19T12:00:57;16.70;;;9.18;;
78053;SDS011;67726;45.636;11.752;2023-11-19T12:03:23;17.40;;;9.83;;
78053;SDS011;67726;45.636;11.752;2023-11-19T12:05:51;18.63;;;9.60;;
78053;SDS011;67726;45.636;11.752;2023-11-19T12:08:18;17.90;;;10.60;;
78053;SDS011;67726;45.636;11.752;2023-11-19T12:10:48;17.10;;;9.48;;
78053;SDS011;67726;45.636;11.752;2023-11-19T12:13:17;18.20;;;9.93;;
78053;SDS011;67726;45.636;11.752;2023-11-19T12:18:30;16.58;;;9.30;;
78053;SDS011;67726;45.636;11.752;2023-11-19T12:20:56;18.88;;;9.60;;
78053;SDS011;67726;45.636;11.752;2023-11-19T12:23:25;18.48;;;9.93;;
78053;SDS011;67726;45.636;11.752;2023-11-19T12:25:54;18.23;;;10.18;;
78053;SDS011;67726;45.636;11.752;2023-11-19T12:28:20;18.20;;;10.03;;
78053;SDS011;67726;45.636;11.752;2023-11-19T12:30:46;15.32;;;8.95;;
78053;SDS011;67726;45.636;11.752;2023-11-19T12:33:13;16.58;;;9.15;;
78053;SDS011;67726;45.636;11.752;2023-11-19T12:35:43;17.23;;;9.43;;
78053;SDS011;67726;45.636;11.752;2023-11-19T12:38:22;17.33;;;10.07;;
78053;SDS011;67726;45.636;11.752;2023-11-19T12:43:30;18.25;;;9.65;;
78053;SDS011;67726;45.636;11.752;2023-11-19T12:45:56;17.45;;;10.35;;
78053;SDS011;67726;45.636;11.752;2023-11-19T12:48:22;18.05;;;11.00;;
78053;SDS011;67726;45.636;11.752;2023-11-19T12:53:21;18.25;;;10.48;;
78053;SDS011;67726;45.636;11.752;2023-11-19T12:55:48;17.75;;;9.90;;
78053;SDS011;67726;45.636;11.752;2023-11-19T12:58:29;19.77;;;10.63;;
78053;SDS011;67726;45.636;11.752;2023-11-19T13:01:03;18.70;;;10.20;;
78053;SDS011;67726;45.636;11.752;2023-11-19T13:03:33;18.63;;;9.95;;
78053;SDS011;67726;45.636;11.752;2023-11-19T13:06:04;18.33;;;10.13;;
78053;SDS011;67726;45.636;11.752;2023-11-19T13:08:44;17.80;;;9.77;;
78053;SDS011;67726;45.636;11.752;2023-11-19T13:11:11;18.30;;;10.23;;
78053;SDS011;67726;45.636;11.752;2023-11-19T13:13:54;19.63;;;10.97;;
78053;SDS011;67726;45.636;11.752;2023-11-19T13:16:20;18.13;;;10.35;;
78053;SDS011;67726;45.636;11.752;2023-11-19T13:18:47;17.65;;;9.77;;
78053;SDS011;67726;45.636;11.752;2023-11-19T13:21:12;18.47;;;10.80;;
78053;SDS011;67726;45.636;11.752;2023-11-19T13:23:38;19.40;;;10.73;;
78053;SDS011;67726;45.636;11.752;2023-11-19T13:26:04;21.77;;;11.53;;
78053;SDS011;67726;45.636;11.752;2023-11-19T13:28:30;18.33;;;10.57;;
78053;SDS011;67726;45.636;11.752;2023-11-19T13:30:56;19.63;;;10.60;;
78053;SDS011;67726;45.636;11.752;2023-11-19T13:33:23;18.58;;;10.95;;
78053;SDS011;67726;45.636;11.752;2023-11-19T13:35:48;17.03;;;10.30;;
78053;SDS011;67726;45.636;11.752;2023-11-19T13:38:14;23.40;;;10.80;;
78053;SDS011;67726;45.636;11.752;2023-11-19T13:40:40;18.37;;;10.93;;
78053;SDS011;67726;45.636;11.752;2023-11-19T13:43:05;19.15;;;11.00;;
78053;SDS011;67726;45.636;11.752;2023-11-19T13:45:32;20.27;;;11.80;;
78053;SDS011;67726;45.636;11.752;2023-11-19T13:47:58;19.43;;;11.53;;
78053;SDS011;67726;45.636;11.752;2023-11-19T13:50:23;18.75;;;11.98;;
78053;SDS011;67726;45.636;11.752;2023-11-19T13:52:49;21.07;;;11.97;;
78053;SDS011;67726;45.636;11.752;2023-11-19T13:55:15;18.63;;;10.95;;
78053;SDS011;67726;45.636;11.752;2023-11-19T13:57:41;20.35;;;12.23;;
78053;SDS011;67726;45.636;11.752;2023-11-19T14:00:08;19.27;;;11.97;;
78053;SDS011;67726;45.636;11.752;2023-11-19T14:02:44;20.75;;;12.43;;
78053;SDS011;67726;45.636;11.752;2023-11-19T14:05:12;20.00;;;11.85;;
78053;SDS011;67726;45.636;11.752;2023-11-19T14:07:39;18.73;;;12.25;;
78053;SDS011;67726;45.636;11.752;2023-11-19T14:10:05;22.70;;;12.10;;
78053;SDS011;67726;45.636;11.752;2023-11-19T14:12:32;21.17;;;11.73;;
78053;SDS011;67726;45.636;11.752;2023-11-19T14:14:58;20.23;;;11.90;;
78053;SDS011;67726;45.636;11.752;2023-11-19T14:17:25;20.30;;;11.10;;
78053;SDS011;67726;45.636;11.752;2023-11-19T14:19:51;20.85;;;11.52;;
78053;SDS011;67726;45.636;11.752;2023-11-19T14:22:16;20.27;;;11.83;;
78053;SDS011;67726;45.636;11.752;2023-11-19T14:24:42;22.20;;;12.25;;
78053;SDS011;67726;45.636;11.752;2023-11-19T14:27:11;20.70;;;11.77;;
78053;SDS011;67726;45.636;11.752;2023-11-19T14:29:37;23.85;;;11.68;;
78053;SDS011;67726;45.636;11.752;2023-11-19T14:32:03;21.20;;;12.23;;